sensor_id;sensor_type;location;lat;lon;timestamp;P1;durP1;ratioP1;P2;durP2;ratioP2
33279;SDS011;20403;43.114;12.434;2023-05-07T00:02:08;3.95;;;1.73;;
33279;SDS011;20403;43.114;12.434;2023-05-07T00:04:34;1.70;;;1.40;;
33279;SDS011;20403;43.114;12.434;2023-05-07T00:07:02;4.80;;;2.10;;
33279;SDS011;20403;43.114;12.434;2023-05-07T00:09:28;3.25;;;1.98;;
33279;SDS011;20403;43.114;12.434;2023-05-07T00:11:54;6.93;;;1.80;;
33279;SDS011;20403;43.114;12.434;2023-05-07T00:14:19;3.47;;;2.00;;
33279;SDS011;20403;43.114;12.434;2023-05-07T00:16:45;6.05;;;2.08;;
33279;SDS011;20403;43.114;12.434;2023-05-07T00:19:11;3.80;;;1.80;;
33279;SDS011;20403;43.114;12.434;2023-05-07T00:21:37;4.28;;;2.20;;
33279;SDS011;20403;43.114;12.434;2023-05-07T00:24:02;5.88;;;2.00;;
33279;SDS011;20403;43.114;12.434;2023-05-07T00:26:28;6.43;;;2.28;;
33279;SDS011;20403;43.114;12.434;2023-05-07T00:28:53;2.95;;;1.83;;
33279;SDS011;20403;43.114;12.434;2023-05-07T00:31:19;5.30;;;2.00;;
33279;SDS011;20403;43.114;12.434;2023-05-07T00:33:44;11.55;;;2.50;;
33279;SDS011;20403;43.114;12.434;2023-05-07T00:36:10;33.03;;;3.38;;
33279;SDS011;20403;43.114;12.434;2023-05-07T00:38:35;24.98;;;2.88;;
33279;SDS011;20403;43.114;12.434;2023-05-07T00:41:00;15.73;;;2.47;;
33279;SDS011;20403;43.114;12.434;2023-05-07T00:43:27;12.07;;;2.72;;
33279;SDS011;20403;43.114;12.434;2023-05-07T00:45:52;18.20;;;2.42;;
33279;SDS011;20403;43.114;12.434;2023-05-07T00:48:18;12.48;;;2.50;;
33279;SDS011;20403;43.114;12.434;2023-05-07T00:50:44;6.50;;;2.10;;
33279;SDS011;20403;43.114;12.434;2023-05-07T00:53:10;8.10;;;2.28;;
33279;SDS011;20403;43.114;12.434;2023-05-07T00:55:38;6.32;;;2.20;;
33279;SDS011;20403;43.114;12.434;2023-05-07T00:58:03;9.00;;;2.10;;
33279;SDS011;20403;43.114;12.434;2023-05-07T01:00:29;6.63;;;1.92;;
33279;SDS011;20403;43.114;12.434;2023-05-07T01:02:54;10.90;;;1.77;;
33279;SDS011;20403;43.114;12.434;2023-05-07T01:05:20;4.00;;;1.65;;
33279;SDS011;20403;43.114;12.434;2023-05-07T01:07:48;10.57;;;2.78;;
33279;SDS011;20403;43.114;12.434;2023-05-07T01:10:15;4.75;;;1.85;;
33279;SDS011;20403;43.114;12.434;2023-05-07T01:12:41;10.93;;;1.75;;
33279;SDS011;20403;43.114;12.434;2023-05-07T01:15:08;12.10;;;1.80;;
33279;SDS011;20403;43.114;12.434;2023-05-07T01:17:35;8.38;;;2.10;;
33279;SDS011;20403;43.114;12.434;2023-05-07T01:20:01;3.53;;;1.90;;
33279;SDS011;20403;43.114;12.434;2023-05-07T01:22:28;7.63;;;1.80;;
33279;SDS011;20403;43.114;12.434;2023-05-07T01:25:03;5.70;;;1.83;;
33279;SDS011;20403;43.114;12.434;2023-05-07T01:27:30;5.53;;;1.95;;
33279;SDS011;20403;43.114;12.434;2023-05-07T01:29:55;5.60;;;1.80;;
33279;SDS011;20403;43.114;12.434;2023-05-07T01:32:56;6.55;;;2.00;;
33279;SDS011;20403;43.114;12.434;2023-05-07T01:35:24;3.75;;;1.63;;
33279;SDS011;20403;43.114;12.434;2023-05-07T01:37:53;2.50;;;1.70;;
33279;SDS011;20403;43.114;12.434;2023-05-07T01:40:19;6.97;;;2.60;;
33279;SDS011;20403;43.114;12.434;2023-05-07T01:42:46;3.70;;;1.60;;
33279;SDS011;20403;43.114;12.434;2023-05-07T01:45:13;5.80;;;1.75;;
33279;SDS011;20403;43.114;12.434;2023-05-07T01:47:38;5.50;;;2.17;;
33279;SDS011;20403;43.114;12.434;2023-05-07T01:50:07;3.35;;;1.73;;
33279;SDS011;20403;43.114;12.434;2023-05-07T01:52:35;3.27;;;1.77;;
33279;SDS011;20403;43.114;12.434;2023-05-07T01:55:03;5.38;;;1.70;;
33279;SDS011;20403;43.114;12.434;2023-05-07T01:57:29;2.72;;;1.65;;
33279;SDS011;20403;43.114;12.434;2023-05-07T01:59:55;4.05;;;1.70;;
33279;SDS011;20403;43.114;12.434;2023-05-07T02:02:20;3.13;;;1.65;;
33279;SDS011;20403;43.114;12.434;2023-05-07T02:04:46;4.22;;;2.13;;
33279;SDS011;20403;43.114;12.434;2023-05-07T02:07:11;5.15;;;2.10;;
33279;SDS011;20403;43.114;12.434;2023-05-07T02:09:37;4.03;;;1.60;;
33279;SDS011;20403;43.114;12.434;2023-05-07T02:12:03;3.38;;;1.80;;
33279;SDS011;20403;43.114;12.434;2023-05-07T02:14:29;3.05;;;1.73;;
33279;SDS011;20403;43.114;12.434;2023-05-07T02:16:55;4.68;;;1.70;;
33279;SDS011;20403;43.114;12.434;2023-05-07T02:19:20;4.18;;;1.83;;
33279;SDS011;20403;43.114;12.434;2023-05-07T02:21:46;2.38;;;1.42;;
33279;SDS011;20403;43.114;12.434;2023-05-07T02:24:12;3.58;;;1.83;;
33279;SDS011;20403;43.114;12.434;2023-05-07T02:26:37;3.88;;;2.15;;
33279;SDS011;20403;43.114;12.434;2023-05-07T02:29:03;3.90;;;1.70;;
33279;SDS011;20403;43.114;12.434;2023-05-07T02:31:28;3.95;;;1.70;;
33279;SDS011;20403;43.114;12.434;2023-05-07T02:33:54;3.33;;;1.73;;
33279;SDS011;20403;43.114;12.434;2023-05-07T02:36:19;10.00;;;1.80;;
33279;SDS011;20403;43.114;12.434;2023-05-07T02:38:44;9.38;;;1.83;;
33279;SDS011;20403;43.114;12.434;2023-05-07T02:41:10;9.00;;;2.20;;
33279;SDS011;20403;43.114;12.434;2023-05-07T02:43:36;12.50;;;2.05;;
33279;SDS011;20403;43.114;12.434;2023-05-07T02:46:04;3.75;;;2.05;;
33279;SDS011;20403;43.114;12.434;2023-05-07T02:48:31;4.60;;;1.77;;
33279;SDS011;20403;43.114;12.434;2023-05-07T02:50:57;5.80;;;1.83;;
33279;SDS011;20403;43.114;12.434;2023-05-07T02:53:23;4.38;;;1.75;;
33279;SDS011;20403;43.114;12.434;2023-05-07T02:55:51;4.57;;;1.80;;
33279;SDS011;20403;43.114;12.434;2023-05-07T02:58:26;4.97;;;1.63;;
33279;SDS011;20403;43.114;12.434;2023-05-07T03:00:52;3.03;;;1.80;;
33279;SDS011;20403;43.114;12.434;2023-05-07T03:03:19;3.78;;;1.65;;
33279;SDS011;20403;43.114;12.434;2023-05-07T03:05:45;3.88;;;1.60;;
33279;SDS011;20403;43.114;12.434;2023-05-07T03:08:11;4.15;;;2.13;;
33279;SDS011;20403;43.114;12.434;2023-05-07T03:10:36;3.10;;;1.85;;
33279;SDS011;20403;43.114;12.434;2023-05-07T03:13:02;2.60;;;1.80;;
33279;SDS011;20403;43.114;12.434;2023-05-07T03:15:28;3.55;;;2.03;;
33279;SDS011;20403;43.114;12.434;2023-05-07T03:17:54;3.95;;;1.70;;
33279;SDS011;20403;43.114;12.434;2023-05-07T03:20:19;2.55;;;1.60;;
33279;SDS011;20403;43.114;12.434;2023-05-07T03:22:44;2.72;;;1.60;;
33279;SDS011;20403;43.114;12.434;2023-05-07T03:25:10;3.33;;;1.70;;
33279;SDS011;20403;43.114;12.434;2023-05-07T03:27:36;2.33;;;1.70;;
33279;SDS011;20403;43.114;12.434;2023-05-07T03:30:01;4.13;;;1.85;;
33279;SDS011;20403;43.114;12.434;2023-05-07T03:32:27;3.80;;;1.75;;
33279;SDS011;20403;43.114;12.434;2023-05-07T03:34:53;5.55;;;2.20;;
33279;SDS011;20403;43.114;12.434;2023-05-07T03:37:18;2.60;;;1.75;;
33279;SDS011;20403;43.114;12.434;2023-05-07T03:39:44;6.93;;;1.88;;
33279;SDS011;20403;43.114;12.434;2023-05-07T03:42:09;5.53;;;1.95;;
33279;SDS011;20403;43.114;12.434;2023-05-07T03:44:35;3.25;;;1.77;;
33279;SDS011;20403;43.114;12.434;2023-05-07T03:47:01;2.25;;;1.58;;
33279;SDS011;20403;43.114;12.434;2023-05-07T03:49:27;4.18;;;1.70;;
33279;SDS011;20403;43.114;12.434;2023-05-07T03:51:52;5.78;;;2.05;;
33279;SDS011;20403;43.114;12.434;2023-05-07T03:54:18;2.92;;;1.75;;
33279;SDS011;20403;43.114;12.434;2023-05-07T03:56:43;3.58;;;1.40;;
33279;SDS011;20403;43.114;12.434;2023-05-07T03:59:09;2.35;;;1.65;;
33279;SDS011;20403;43.114;12.434;2023-05-07T04:01:34;2.88;;;1.55;;
33279;SDS011;20403;43.114;12.434;2023-05-07T04:03:59;3.92;;;1.65;;
33279;SDS011;20403;43.114;12.434;2023-05-07T04:06:25;2.63;;;1.60;;
33279;SDS011;20403;43.114;12.434;2023-05-07T04:08:50;3.58;;;1.92;;
33279;SDS011;20403;43.114;12.434;2023-05-07T04:11:16;2.65;;;1.73;;
33279;SDS011;20403;43.114;12.434;2023-05-07T04:13:41;2.72;;;1.73;;
33279;SDS011;20403;43.114;12.434;2023-05-07T04:16:07;3.92;;;1.88;;
33279;SDS011;20403;43.114;12.434;2023-05-07T04:18:33;4.00;;;1.75;;
33279;SDS011;20403;43.114;12.434;2023-05-07T04:20:58;5.72;;;1.70;;
33279;SDS011;20403;43.114;12.434;2023-05-07T04:23:23;4.10;;;1.70;;
33279;SDS011;20403;43.114;12.434;2023-05-07T04:25:49;4.70;;;1.70;;
33279;SDS011;20403;43.114;12.434;2023-05-07T04:28:15;2.58;;;1.67;;
33279;SDS011;20403;43.114;12.434;2023-05-07T04:30:40;2.83;;;1.63;;
33279;SDS011;20403;43.114;12.434;2023-05-07T04:33:06;2.50;;;1.60;;
33279;SDS011;20403;43.114;12.434;2023-05-07T04:35:31;3.42;;;1.73;;
33279;SDS011;20403;43.114;12.434;2023-05-07T04:37:57;3.42;;;1.58;;
33279;SDS011;20403;43.114;12.434;2023-05-07T04:40:23;3.00;;;1.73;;
33279;SDS011;20403;43.114;12.434;2023-05-07T04:42:48;2.75;;;1.70;;
33279;SDS011;20403;43.114;12.434;2023-05-07T04:45:14;4.82;;;1.95;;
33279;SDS011;20403;43.114;12.434;2023-05-07T04:47:40;7.38;;;2.10;;
33279;SDS011;20403;43.114;12.434;2023-05-07T04:50:06;2.00;;;1.75;;
33279;SDS011;20403;43.114;12.434;2023-05-07T04:52:31;5.35;;;2.08;;
33279;SDS011;20403;43.114;12.434;2023-05-07T04:54:59;9.88;;;1.75;;
33279;SDS011;20403;43.114;12.434;2023-05-07T04:57:24;3.65;;;2.15;;
33279;SDS011;20403;43.114;12.434;2023-05-07T04:59:50;5.53;;;2.00;;
33279;SDS011;20403;43.114;12.434;2023-05-07T05:02:15;4.10;;;1.80;;
33279;SDS011;20403;43.114;12.434;2023-05-07T05:04:41;4.93;;;1.85;;
33279;SDS011;20403;43.114;12.434;2023-05-07T05:07:06;2.92;;;2.08;;
33279;SDS011;20403;43.114;12.434;2023-05-07T05:09:32;3.45;;;1.83;;
33279;SDS011;20403;43.114;12.434;2023-05-07T05:11:57;5.93;;;2.00;;
33279;SDS011;20403;43.114;12.434;2023-05-07T05:14:24;3.25;;;1.80;;
33279;SDS011;20403;43.114;12.434;2023-05-07T05:16:49;2.35;;;1.90;;
33279;SDS011;20403;43.114;12.434;2023-05-07T05:19:14;2.60;;;2.08;;
33279;SDS011;20403;43.114;12.434;2023-05-07T05:21:40;6.72;;;2.42;;
33279;SDS011;20403;43.114;12.434;2023-05-07T05:24:05;3.47;;;2.33;;
33279;SDS011;20403;43.114;12.434;2023-05-07T05:26:31;4.57;;;2.25;;
33279;SDS011;20403;43.114;12.434;2023-05-07T05:28:56;6.10;;;1.98;;
33279;SDS011;20403;43.114;12.434;2023-05-07T05:31:22;4.13;;;1.90;;
33279;SDS011;20403;43.114;12.434;2023-05-07T05:33:48;7.95;;;2.80;;
33279;SDS011;20403;43.114;12.434;2023-05-07T05:36:13;6.25;;;2.30;;
33279;SDS011;20403;43.114;12.434;2023-05-07T05:38:39;3.38;;;2.10;;
33279;SDS011;20403;43.114;12.434;2023-05-07T05:41:05;3.80;;;1.83;;
33279;SDS011;20403;43.114;12.434;2023-05-07T05:43:30;4.03;;;2.45;;
33279;SDS011;20403;43.114;12.434;2023-05-07T05:45:56;2.60;;;2.00;;
33279;SDS011;20403;43.114;12.434;2023-05-07T05:48:22;5.80;;;2.35;;
33279;SDS011;20403;43.114;12.434;2023-05-07T05:50:48;7.93;;;2.03;;
33279;SDS011;20403;43.114;12.434;2023-05-07T05:53:13;3.65;;;2.45;;
33279;SDS011;20403;43.114;12.434;2023-05-07T05:55:39;3.50;;;2.28;;
33279;SDS011;20403;43.114;12.434;2023-05-07T05:58:05;7.00;;;2.33;;
33279;SDS011;20403;43.114;12.434;2023-05-07T06:00:30;4.90;;;2.03;;
33279;SDS011;20403;43.114;12.434;2023-05-07T06:02:56;4.78;;;2.50;;
33279;SDS011;20403;43.114;12.434;2023-05-07T06:05:22;5.00;;;2.92;;
33279;SDS011;20403;43.114;12.434;2023-05-07T06:07:47;9.02;;;2.47;;
33279;SDS011;20403;43.114;12.434;2023-05-07T06:10:12;5.22;;;2.20;;
33279;SDS011;20403;43.114;12.434;2023-05-07T06:12:38;6.32;;;2.67;;
33279;SDS011;20403;43.114;12.434;2023-05-07T06:15:03;4.28;;;2.65;;
33279;SDS011;20403;43.114;12.434;2023-05-07T06:17:29;5.88;;;2.45;;
33279;SDS011;20403;43.114;12.434;2023-05-07T06:19:55;5.03;;;2.80;;
33279;SDS011;20403;43.114;12.434;2023-05-07T06:22:20;4.95;;;2.47;;
33279;SDS011;20403;43.114;12.434;2023-05-07T06:24:46;3.58;;;2.25;;
33279;SDS011;20403;43.114;12.434;2023-05-07T06:27:12;5.72;;;2.60;;
33279;SDS011;20403;43.114;12.434;2023-05-07T06:29:37;5.22;;;2.60;;
33279;SDS011;20403;43.114;12.434;2023-05-07T06:32:10;6.93;;;2.50;;
33279;SDS011;20403;43.114;12.434;2023-05-07T06:34:36;3.95;;;2.65;;
33279;SDS011;20403;43.114;12.434;2023-05-07T06:37:02;3.67;;;2.58;;
33279;SDS011;20403;43.114;12.434;2023-05-07T06:39:27;8.25;;;3.20;;
33279;SDS011;20403;43.114;12.434;2023-05-07T06:41:53;24.88;;;11.00;;
33279;SDS011;20403;43.114;12.434;2023-05-07T06:44:18;10.43;;;3.45;;
33279;SDS011;20403;43.114;12.434;2023-05-07T06:46:44;6.03;;;3.38;;
33279;SDS011;20403;43.114;12.434;2023-05-07T06:49:10;8.15;;;3.42;;
33279;SDS011;20403;43.114;12.434;2023-05-07T06:51:36;7.95;;;3.50;;
33279;SDS011;20403;43.114;12.434;2023-05-07T06:54:01;5.47;;;3.22;;
33279;SDS011;20403;43.114;12.434;2023-05-07T06:56:29;5.80;;;3.20;;
33279;SDS011;20403;43.114;12.434;2023-05-07T06:58:54;5.78;;;2.90;;
33279;SDS011;20403;43.114;12.434;2023-05-07T07:01:20;4.45;;;2.90;;
33279;SDS011;20403;43.114;12.434;2023-05-07T07:03:45;4.93;;;2.58;;
33279;SDS011;20403;43.114;12.434;2023-05-07T07:06:10;4.05;;;2.88;;
33279;SDS011;20403;43.114;12.434;2023-05-07T07:08:36;6.20;;;2.75;;
33279;SDS011;20403;43.114;12.434;2023-05-07T07:11:03;7.63;;;2.95;;
33279;SDS011;20403;43.114;12.434;2023-05-07T07:13:29;4.38;;;2.83;;
33279;SDS011;20403;43.114;12.434;2023-05-07T07:15:54;3.40;;;2.40;;
33279;SDS011;20403;43.114;12.434;2023-05-07T07:18:20;4.78;;;2.38;;
33279;SDS011;20403;43.114;12.434;2023-05-07T07:20:45;3.83;;;2.30;;
33279;SDS011;20403;43.114;12.434;2023-05-07T07:23:11;6.32;;;2.35;;
33279;SDS011;20403;43.114;12.434;2023-05-07T07:25:36;6.05;;;2.88;;
33279;SDS011;20403;43.114;12.434;2023-05-07T07:28:02;5.32;;;3.00;;
33279;SDS011;20403;43.114;12.434;2023-05-07T07:30:27;4.25;;;3.13;;
33279;SDS011;20403;43.114;12.434;2023-05-07T07:32:53;8.57;;;2.70;;
33279;SDS011;20403;43.114;12.434;2023-05-07T07:35:18;3.25;;;2.20;;
33279;SDS011;20403;43.114;12.434;2023-05-07T07:37:44;3.55;;;2.60;;
33279;SDS011;20403;43.114;12.434;2023-05-07T07:40:10;5.88;;;1.92;;
33279;SDS011;20403;43.114;12.434;2023-05-07T07:42:36;3.85;;;1.85;;
33279;SDS011;20403;43.114;12.434;2023-05-07T07:45:02;5.10;;;1.90;;
33279;SDS011;20403;43.114;12.434;2023-05-07T07:47:28;5.03;;;2.28;;
33279;SDS011;20403;43.114;12.434;2023-05-07T07:49:53;6.05;;;4.43;;
33279;SDS011;20403;43.114;12.434;2023-05-07T07:52:19;5.13;;;3.03;;
33279;SDS011;20403;43.114;12.434;2023-05-07T07:54:44;8.00;;;5.68;;
33279;SDS011;20403;43.114;12.434;2023-05-07T07:57:10;9.60;;;6.25;;
33279;SDS011;20403;43.114;12.434;2023-05-07T07:59:35;9.40;;;3.97;;
33279;SDS011;20403;43.114;12.434;2023-05-07T08:02:01;9.05;;;3.55;;
33279;SDS011;20403;43.114;12.434;2023-05-07T08:04:26;7.13;;;4.63;;
33279;SDS011;20403;43.114;12.434;2023-05-07T08:06:51;9.75;;;4.82;;
33279;SDS011;20403;43.114;12.434;2023-05-07T08:09:19;11.70;;;4.93;;
33279;SDS011;20403;43.114;12.434;2023-05-07T08:11:44;9.90;;;4.47;;
33279;SDS011;20403;43.114;12.434;2023-05-07T08:14:10;9.95;;;3.97;;
33279;SDS011;20403;43.114;12.434;2023-05-07T08:16:36;5.85;;;2.85;;
33279;SDS011;20403;43.114;12.434;2023-05-07T08:19:01;5.45;;;3.08;;
33279;SDS011;20403;43.114;12.434;2023-05-07T08:21:27;9.93;;;3.53;;
33279;SDS011;20403;43.114;12.434;2023-05-07T08:23:52;11.38;;;5.13;;
33279;SDS011;20403;43.114;12.434;2023-05-07T08:26:18;4.85;;;2.78;;
33279;SDS011;20403;43.114;12.434;2023-05-07T08:28:43;12.23;;;6.03;;
33279;SDS011;20403;43.114;12.434;2023-05-07T08:31:09;4.50;;;2.55;;
33279;SDS011;20403;43.114;12.434;2023-05-07T08:33:34;3.55;;;1.63;;
33279;SDS011;20403;43.114;12.434;2023-05-07T08:35:59;6.45;;;1.50;;
33279;SDS011;20403;43.114;12.434;2023-05-07T08:38:25;4.97;;;2.65;;
33279;SDS011;20403;43.114;12.434;2023-05-07T08:40:50;4.03;;;1.40;;
33279;SDS011;20403;43.114;12.434;2023-05-07T08:43:16;5.57;;;1.90;;
33279;SDS011;20403;43.114;12.434;2023-05-07T08:45:43;11.07;;;4.30;;
33279;SDS011;20403;43.114;12.434;2023-05-07T08:48:16;4.85;;;2.42;;
33279;SDS011;20403;43.114;12.434;2023-05-07T08:50:42;5.57;;;1.83;;
33279;SDS011;20403;43.114;12.434;2023-05-07T08:53:08;6.22;;;2.28;;
33279;SDS011;20403;43.114;12.434;2023-05-07T08:55:34;7.82;;;2.80;;
33279;SDS011;20403;43.114;12.434;2023-05-07T08:57:59;7.05;;;3.25;;
33279;SDS011;20403;43.114;12.434;2023-05-07T09:00:26;4.57;;;2.13;;
33279;SDS011;20403;43.114;12.434;2023-05-07T09:02:52;3.90;;;2.03;;
33279;SDS011;20403;43.114;12.434;2023-05-07T09:05:18;6.85;;;2.30;;
33279;SDS011;20403;43.114;12.434;2023-05-07T09:07:43;8.50;;;2.55;;
33279;SDS011;20403;43.114;12.434;2023-05-07T09:10:09;6.72;;;3.00;;
33279;SDS011;20403;43.114;12.434;2023-05-07T09:12:35;7.28;;;3.58;;
33279;SDS011;20403;43.114;12.434;2023-05-07T09:15:01;12.10;;;4.03;;
33279;SDS011;20403;43.114;12.434;2023-05-07T09:17:27;8.50;;;3.90;;
33279;SDS011;20403;43.114;12.434;2023-05-07T09:19:53;9.27;;;5.00;;
33279;SDS011;20403;43.114;12.434;2023-05-07T09:22:19;7.57;;;3.60;;
33279;SDS011;20403;43.114;12.434;2023-05-07T09:24:48;5.85;;;2.30;;
33279;SDS011;20403;43.114;12.434;2023-05-07T09:27:14;9.70;;;2.50;;
33279;SDS011;20403;43.114;12.434;2023-05-07T09:29:40;6.45;;;3.22;;
33279;SDS011;20403;43.114;12.434;2023-05-07T09:32:06;5.00;;;2.70;;
33279;SDS011;20403;43.114;12.434;2023-05-07T09:34:32;9.00;;;2.80;;
33279;SDS011;20403;43.114;12.434;2023-05-07T09:36:59;3.22;;;1.38;;
33279;SDS011;20403;43.114;12.434;2023-05-07T09:39:25;3.72;;;1.60;;
33279;SDS011;20403;43.114;12.434;2023-05-07T09:41:51;4.90;;;1.60;;
33279;SDS011;20403;43.114;12.434;2023-05-07T09:44:19;3.53;;;1.55;;
33279;SDS011;20403;43.114;12.434;2023-05-07T09:46:45;3.13;;;1.42;;
33279;SDS011;20403;43.114;12.434;2023-05-07T09:49:20;7.47;;;1.67;;
33279;SDS011;20403;43.114;12.434;2023-05-07T09:51:48;6.18;;;1.50;;
33279;SDS011;20403;43.114;12.434;2023-05-07T09:54:16;3.70;;;1.52;;
33279;SDS011;20403;43.114;12.434;2023-05-07T09:56:42;3.38;;;1.30;;
33279;SDS011;20403;43.114;12.434;2023-05-07T09:59:12;4.30;;;1.17;;
33279;SDS011;20403;43.114;12.434;2023-05-07T10:01:40;4.35;;;1.27;;
33279;SDS011;20403;43.114;12.434;2023-05-07T10:04:10;3.72;;;1.58;;
33279;SDS011;20403;43.114;12.434;2023-05-07T10:06:36;2.60;;;1.20;;
33279;SDS011;20403;43.114;12.434;2023-05-07T10:09:02;2.38;;;1.20;;
33279;SDS011;20403;43.114;12.434;2023-05-07T10:11:31;2.05;;;1.05;;
33279;SDS011;20403;43.114;12.434;2023-05-07T10:13:58;1.13;;;0.85;;
33279;SDS011;20403;43.114;12.434;2023-05-07T10:16:24;5.45;;;1.52;;
33279;SDS011;20403;43.114;12.434;2023-05-07T10:18:50;3.00;;;0.82;;
33279;SDS011;20403;43.114;12.434;2023-05-07T10:21:17;1.33;;;0.80;;
33279;SDS011;20403;43.114;12.434;2023-05-07T10:23:57;3.08;;;1.08;;
33279;SDS011;20403;43.114;12.434;2023-05-07T10:26:44;2.63;;;1.13;;
33279;SDS011;20403;43.114;12.434;2023-05-07T10:29:25;5.32;;;1.02;;
33279;SDS011;20403;43.114;12.434;2023-05-07T10:35:13;2.58;;;1.17;;
33279;SDS011;20403;43.114;12.434;2023-05-07T10:37:42;2.05;;;0.90;;
33279;SDS011;20403;43.114;12.434;2023-05-07T10:40:09;3.17;;;1.10;;
33279;SDS011;20403;43.114;12.434;2023-05-07T10:42:35;3.53;;;1.00;;
33279;SDS011;20403;43.114;12.434;2023-05-07T10:45:13;2.67;;;0.90;;
33279;SDS011;20403;43.114;12.434;2023-05-07T10:50:31;1.02;;;0.80;;
33279;SDS011;20403;43.114;12.434;2023-05-07T10:58:30;4.07;;;0.90;;
33279;SDS011;20403;43.114;12.434;2023-05-07T11:00:59;2.40;;;1.00;;
33279;SDS011;20403;43.114;12.434;2023-05-07T11:17:09;1.77;;;0.98;;
33279;SDS011;20403;43.114;12.434;2023-05-07T11:19:48;4.15;;;1.10;;
33279;SDS011;20403;43.114;12.434;2023-05-07T11:24:56;1.90;;;0.93;;
33279;SDS011;20403;43.114;12.434;2023-05-07T11:27:24;6.25;;;1.20;;
33279;SDS011;20403;43.114;12.434;2023-05-07T11:29:51;3.50;;;1.33;;
33279;SDS011;20403;43.114;12.434;2023-05-07T11:32:23;12.80;;;1.10;;
33279;SDS011;20403;43.114;12.434;2023-05-07T11:34:52;1.63;;;1.10;;
33279;SDS011;20403;43.114;12.434;2023-05-07T11:37:18;1.80;;;1.08;;
33279;SDS011;20403;43.114;12.434;2023-05-07T11:39:46;5.35;;;1.23;;
33279;SDS011;20403;43.114;12.434;2023-05-07T11:42:31;2.35;;;1.00;;
33279;SDS011;20403;43.114;12.434;2023-05-07T11:45:04;2.42;;;1.10;;
33279;SDS011;20403;43.114;12.434;2023-05-07T11:47:30;2.22;;;1.00;;
33279;SDS011;20403;43.114;12.434;2023-05-07T11:49:56;4.95;;;1.25;;
33279;SDS011;20403;43.114;12.434;2023-05-07T11:52:22;6.63;;;1.10;;
33279;SDS011;20403;43.114;12.434;2023-05-07T11:54:52;2.38;;;1.10;;
33279;SDS011;20403;43.114;12.434;2023-05-07T11:57:19;7.70;;;0.90;;
33279;SDS011;20403;43.114;12.434;2023-05-07T11:59:45;4.75;;;1.15;;
33279;SDS011;20403;43.114;12.434;2023-05-07T12:02:14;2.13;;;0.90;;
33279;SDS011;20403;43.114;12.434;2023-05-07T12:04:40;1.67;;;1.02;;
33279;SDS011;20403;43.114;12.434;2023-05-07T12:07:11;4.35;;;1.00;;
33279;SDS011;20403;43.114;12.434;2023-05-07T12:09:37;4.53;;;1.23;;
33279;SDS011;20403;43.114;12.434;2023-05-07T12:12:05;5.97;;;1.55;;
33279;SDS011;20403;43.114;12.434;2023-05-07T12:14:31;2.70;;;0.90;;
33279;SDS011;20403;43.114;12.434;2023-05-07T12:16:57;2.70;;;0.88;;
33279;SDS011;20403;43.114;12.434;2023-05-07T12:19:28;5.22;;;0.98;;
33279;SDS011;20403;43.114;12.434;2023-05-07T12:21:54;2.42;;;0.80;;
33279;SDS011;20403;43.114;12.434;2023-05-07T12:24:21;1.98;;;0.93;;
33279;SDS011;20403;43.114;12.434;2023-05-07T12:26:47;4.00;;;1.15;;
33279;SDS011;20403;43.114;12.434;2023-05-07T12:29:13;1.73;;;0.90;;
33279;SDS011;20403;43.114;12.434;2023-05-07T12:31:40;1.38;;;0.80;;
33279;SDS011;20403;43.114;12.434;2023-05-07T12:34:10;1.65;;;0.98;;
33279;SDS011;20403;43.114;12.434;2023-05-07T12:36:37;3.30;;;1.10;;
33279;SDS011;20403;43.114;12.434;2023-05-07T12:39:04;3.47;;;1.17;;
33279;SDS011;20403;43.114;12.434;2023-05-07T12:41:51;1.25;;;0.80;;
33279;SDS011;20403;43.114;12.434;2023-05-07T12:44:18;2.92;;;1.33;;
33279;SDS011;20403;43.114;12.434;2023-05-07T12:46:44;3.10;;;1.20;;
33279;SDS011;20403;43.114;12.434;2023-05-07T12:49:09;2.22;;;0.82;;
33279;SDS011;20403;43.114;12.434;2023-05-07T12:51:35;4.07;;;1.05;;
33279;SDS011;20403;43.114;12.434;2023-05-07T12:54:00;2.53;;;1.20;;
33279;SDS011;20403;43.114;12.434;2023-05-07T12:56:26;4.53;;;0.90;;
33279;SDS011;20403;43.114;12.434;2023-05-07T12:58:51;3.05;;;1.30;;
33279;SDS011;20403;43.114;12.434;2023-05-07T13:01:22;2.55;;;1.08;;
33279;SDS011;20403;43.114;12.434;2023-05-07T13:03:54;3.33;;;1.48;;
33279;SDS011;20403;43.114;12.434;2023-05-07T13:06:20;2.08;;;1.27;;
33279;SDS011;20403;43.114;12.434;2023-05-07T13:08:45;2.08;;;1.10;;
33279;SDS011;20403;43.114;12.434;2023-05-07T13:11:11;2.88;;;1.27;;
33279;SDS011;20403;43.114;12.434;2023-05-07T13:13:38;9.23;;;1.20;;
33279;SDS011;20403;43.114;12.434;2023-05-07T13:16:05;4.43;;;1.58;;
33279;SDS011;20403;43.114;12.434;2023-05-07T13:18:32;4.35;;;1.33;;
33279;SDS011;20403;43.114;12.434;2023-05-07T13:20:58;1.52;;;0.88;;
33279;SDS011;20403;43.114;12.434;2023-05-07T13:23:25;4.13;;;1.10;;
33279;SDS011;20403;43.114;12.434;2023-05-07T13:25:50;4.00;;;1.60;;
33279;SDS011;20403;43.114;12.434;2023-05-07T13:28:18;2.92;;;1.50;;
33279;SDS011;20403;43.114;12.434;2023-05-07T13:30:45;2.17;;;1.15;;
33279;SDS011;20403;43.114;12.434;2023-05-07T13:33:11;2.95;;;1.30;;
33279;SDS011;20403;43.114;12.434;2023-05-07T13:35:37;3.35;;;2.00;;
33279;SDS011;20403;43.114;12.434;2023-05-07T13:38:02;4.90;;;2.45;;
33279;SDS011;20403;43.114;12.434;2023-05-07T13:40:28;2.05;;;1.00;;
33279;SDS011;20403;43.114;12.434;2023-05-07T13:42:53;2.33;;;1.08;;
33279;SDS011;20403;43.114;12.434;2023-05-07T13:45:21;2.17;;;1.10;;
33279;SDS011;20403;43.114;12.434;2023-05-07T13:47:50;3.08;;;0.90;;
33279;SDS011;20403;43.114;12.434;2023-05-07T13:50:16;6.15;;;0.90;;
33279;SDS011;20403;43.114;12.434;2023-05-07T13:52:42;3.55;;;0.82;;
33279;SDS011;20403;43.114;12.434;2023-05-07T13:55:09;10.45;;;2.65;;
33279;SDS011;20403;43.114;12.434;2023-05-07T13:57:35;4.85;;;2.72;;
33279;SDS011;20403;43.114;12.434;2023-05-07T14:00:02;5.22;;;2.17;;
33279;SDS011;20403;43.114;12.434;2023-05-07T14:02:30;4.13;;;2.33;;
33279;SDS011;20403;43.114;12.434;2023-05-07T14:04:56;3.92;;;1.70;;
33279;SDS011;20403;43.114;12.434;2023-05-07T14:07:21;3.85;;;1.60;;
33279;SDS011;20403;43.114;12.434;2023-05-07T14:09:46;7.35;;;2.78;;
33279;SDS011;20403;43.114;12.434;2023-05-07T14:12:12;7.00;;;3.05;;
33279;SDS011;20403;43.114;12.434;2023-05-07T14:14:37;2.72;;;1.80;;
33279;SDS011;20403;43.114;12.434;2023-05-07T14:17:03;2.80;;;1.77;;
33279;SDS011;20403;43.114;12.434;2023-05-07T14:19:28;3.58;;;1.10;;
33279;SDS011;20403;43.114;12.434;2023-05-07T14:21:53;2.97;;;1.00;;
33279;SDS011;20403;43.114;12.434;2023-05-07T14:24:19;5.25;;;1.20;;
33279;SDS011;20403;43.114;12.434;2023-05-07T14:26:45;1.60;;;0.90;;
33279;SDS011;20403;43.114;12.434;2023-05-07T14:29:10;2.75;;;1.05;;
33279;SDS011;20403;43.114;12.434;2023-05-07T14:31:36;2.47;;;1.00;;
33279;SDS011;20403;43.114;12.434;2023-05-07T14:34:01;2.85;;;1.00;;
33279;SDS011;20403;43.114;12.434;2023-05-07T14:36:27;4.45;;;1.10;;
33279;SDS011;20403;43.114;12.434;2023-05-07T14:38:53;3.05;;;0.90;;
33279;SDS011;20403;43.114;12.434;2023-05-07T14:41:20;6.00;;;1.05;;
33279;SDS011;20403;43.114;12.434;2023-05-07T14:43:46;3.03;;;1.23;;
33279;SDS011;20403;43.114;12.434;2023-05-07T14:46:17;1.40;;;1.00;;
33279;SDS011;20403;43.114;12.434;2023-05-07T14:48:44;2.28;;;0.93;;
33279;SDS011;20403;43.114;12.434;2023-05-07T14:51:10;1.30;;;0.90;;
33279;SDS011;20403;43.114;12.434;2023-05-07T14:53:36;2.45;;;1.23;;
33279;SDS011;20403;43.114;12.434;2023-05-07T14:56:01;2.50;;;1.10;;
33279;SDS011;20403;43.114;12.434;2023-05-07T14:58:27;2.70;;;0.93;;